• Join FlightAware (Why Join?)
  • Login
  • US Flag 
09:26AM EDT


 

Airport Tracker/Info


-or-


 

Live Flight TrackerFlight Track Log ✈ N978AC ✈ 18-Nov-2013 ✈ KPBI - KAPF

Flight Track Log - Related Links

Times and Time Zones

All times are in EST time to prevent confusion due to time zone crossing. See the N978AC flight status page for this flight to view local times or setup timezone preferences in your user account.

Time Position Orientation Groundspeed Altitude Reporting Facility
EST Latitude Longitude Course Direction KTS MPH feet Rate Location/Type
01:19PM 26.6269 -80.2774 267° West  Level Estimated
01:20PM 26.6274 -80.3095 271° West  Level FlightAware Approximate
01:21PM 26.6280 -80.3415 271° West  Level FlightAware Approximate
01:22PM 26.6285 -80.3736 271° West  Level FlightAware Approximate
01:23PM 26.6290 -80.4057 271° West  Level FlightAware Approximate
01:24PM 26.6295 -80.4377 271° West  Level FlightAware Approximate
01:25PM 26.6300 -80.4698 271° West  Level FlightAware Approximate
01:25PM 26.5622 -80.2942 269° West 107 123 6,100  Level Miami Center
01:26PM 26.6305 -80.5018 271° West  Level FlightAware Approximate
01:26PM 26.5614 -80.3242 268° West 112 129 6,000  Level Miami Center
01:27PM 26.6195 -80.5315 263° West  Level Estimated
01:27PM 26.5647 -80.3592 276° West 101 116 6,000  Level Miami Center
01:28PM 26.6193 -80.5635 269° West  Level FlightAware Approximate
01:28PM 26.5642 -80.3869 269° West 106 122 6,000  Level Miami Center
01:29PM 26.6190 -80.5956 269° West  Level FlightAware Approximate
01:29PM 26.5611 -80.4242 265° West 106 122 6,000  Level Miami Center
01:30PM 26.5647 -80.4522 278° West 111 128 6,000  Level Miami Center
01:31PM 26.5594 -80.4892 261° West 111 128 6,000  Level Miami Center
01:32PM 26.5586 -80.5217 268° West 111 128 6,100  Climbing Miami Center
01:33PM 26.5597 -80.5589 272° West 116 133 6,000 -60 Descending Miami Center
01:34PM 26.5569 -80.5889 264° West 116 133 6,000  Level Miami Center
01:35PM 26.5539 -80.6258 265° West 116 133 6,000  Level Miami Center
01:36PM 26.5572 -80.6561 277° West 116 133 6,000  Level Miami Center
01:37PM 26.5294 -80.6808 219° Southwest 106 122 6,000  Level Miami Center
01:38PM 26.5061 -80.6986 214° Southwest 116 133 6,100  Climbing Miami Center
01:39PM 26.4786 -80.7164 210° Southwest 116 133 6,100  Level Miami Center
01:40PM 26.4531 -80.7317 208° Southwest 123 142 6,100  Level Miami Center
01:41PM 26.4294 -80.7589 226° Southwest 116 133 6,100  Level Miami Center
01:42PM 26.4119 -80.7814 229° Southwest 111 128 6,100  Level Miami Center
01:43PM 26.3883 -80.8108 228° Southwest 117 135 6,100  Level Miami Center
01:44PM 26.3708 -80.8333 229° Southwest 117 135 6,100  Level Miami Center
01:45PM 26.3472 -80.8606 226° Southwest 111 128 6,100  Level Miami Center
01:46PM 26.3381 -80.8878 249° West 111 128 6,100  Level Miami Center
01:47PM 26.3350 -80.9225 264° West 99 114 6,100  Level Miami Center
01:48PM 26.3258 -80.9525 251° West 109 125 6,200  Climbing Miami Center
01:49PM 26.3186 -80.9844 256° West 104 120 6,200  Level Miami Center
01:50PM 26.3117 -81.0144 256° West 104 120 6,200 -120 Level Miami Center
01:51PM 26.3064 -81.0514 261° West 104 120 6,000 -300 Descending Miami Center
01:52PM 26.2992 -81.0836 256° West 104 120 5,600 -420 Descending Miami Center
01:53PM 26.2939 -81.1203 261° West 109 125 5,200 -480 Descending Miami Center
01:54PM 26.2867 -81.1572 258° West 120 138 4,700 -540 Descending Miami Center
01:55PM 26.2794 -81.1894 256° West 126 145 4,200 -360 Descending Miami Center
01:56PM 26.2700 -81.2236 253° West 120 138 4,000 -120 Descending Miami Center
01:57PM 26.2650 -81.2536 259° West 115 132 4,000  Level Miami Center
01:58PM 26.2578 -81.2858 256° West 115 132 4,100  Climbing Miami Center
01:59PM 26.2503 -81.3203 256° West 107 123 4,000 -60 Descending Miami Center
02:00PM 26.2453 -81.3525 260° West 107 123 4,000  Level Miami Center
02:01PM 26.2381 -81.3847 256° West 107 123 4,000  Level Miami Center
02:03PM 26.2241 -81.4394 254° West  Level FlightAware Approximate
02:10PM 26.1770 -81.6368 256° West  Level FlightAware Approximate
02:11PM 26.1707 -81.6651 256° West  Level FlightAware Approximate
02:12PM 26.1646 -81.6934 257° West  Level FlightAware Approximate
02:13PM 26.1590 -81.7219 257° West  Level FlightAware Approximate
02:14PM 26.1533 -81.7503 257° West  Level FlightAware Approximate
02:15PM 26.1500 -81.7667 257° West  Level FlightAware Approximate
02:16PM 26.1524 -81.7756 257° West  Level Estimated
02:17PM 26.1524 -81.7756 257° West  Level Estimated
02:18PM 26.1524 -81.7756 257° West  Level Estimated
02:19PM 26.1524 -81.7756 257° West  Level Estimated
02:20PM 26.1524 -81.7756 257° West  Level Estimated
02:21PM 26.1524 -81.7756 257° West  Level Estimated
02:22PM 26.1524 -81.7756 257° West  Level Estimated
02:23PM 26.1524 -81.7756 257° West  Level Estimated